Time;durP1;ratioP1;P1;durP2;ratioP2;P2;SDS_P1;SDS_P2;PMS_P1;PMS_P2;Temp;Humidity;BMP_temperature;BMP_pressure;BME280_temperature;BME280_humidity;BME280_pressure;Samples;Min_cycle;Max_cycle;Signal;HPM_P1;HPM_P2
2022/09/09 00:02:18;;;;;;;;;1.75;1.00;;;;;17.09;67.13;100707.72;5020761;28;45434;-86
2022/09/09 00:05:01;;;;;;;;;1.00;1.00;;;;;17.09;67.38;100702.47;5019803;28;45424;-86
2022/09/09 00:07:39;;;;;;;;;0.50;0.25;;;;;17.07;66.58;100701.66;5020542;28;47018;-86
2022/09/09 00:11:01;;;;;;;;;1.75;0.00;;;;;17.03;66.99;100701.88;5036939;28;45908;-86
2022/09/09 00:14:01;;;;;;;;;;;;;;;;;;;;;
2022/09/09 00:17:23;;;;;;;;;1.00;1.00;;;;;16.98;66.54;100698.63;5018790;28;71147;-89
2022/09/09 00:19:34;;;;;;;;;2.50;1.00;;;;;16.97;66.92;100704.81;5015212;28;46399;-88
2022/09/09 00:22:22;;;;;;;;;2.00;1.00;;;;;16.96;66.58;100703.13;5037823;28;45839;-89
2022/09/09 00:25:25;;;;;;;;;4.25;1.00;;;;;16.95;66.71;100701.44;5020683;28;45436;-89
2022/09/09 00:27:53;;;;;;;;;3.75;1.00;;;;;16.94;67.05;100702.38;5037105;28;45381;-90
2022/09/09 00:30:34;;;;;;;;;4.75;1.50;;;;;16.94;67.00;100689.22;5020329;28;47122;-90
2022/09/09 00:33:27;;;;;;;;;1.00;1.00;;;;;16.94;67.39;100696.28;5020145;28;45651;-90
2022/09/09 00:35:57;;;;;;;;;2.75;1.00;;;;;16.95;66.81;100692.69;5014970;28;45453;-90
2022/09/09 00:38:40;;;;;;;;;2.25;1.00;;;;;16.95;67.33;100705.84;5020006;28;45486;-89
2022/09/09 00:41:38;;;;;;;;;;;;;;;;;;;;;
2022/09/09 00:44:41;;;;;;;;;;;;;;;;;;;;;
2022/09/09 00:47:48;;;;;;;;;;;;;;;;;;;;;
2022/09/09 00:50:26;;;;;;;;;5.00;0.25;;;;;16.99;67.54;100699.47;4995922;28;45293;-90
2022/09/09 00:53:33;;;;;;;;;0.00;0.00;;;;;16.97;66.80;100699.56;4979355;28;47439;-89
2022/09/09 00:56:34;;;;;;;;;1.25;1.00;;;;;16.95;67.30;100690.06;4937078;28;45463;-90
2022/09/09 00:59:40;;;;;;;;;1.50;1.00;;;;;16.94;67.27;100696.28;4879843;29;45398;-89
2022/09/09 01:02:30;;;;;;;;;0.75;0.75;;;;;16.89;67.18;100690.44;4879715;29;45339;-90
2022/09/09 01:05:24;;;;;;;;;1.25;1.00;;;;;16.88;67.02;100680.84;4879706;29;45505;-89
2022/09/09 01:07:59;;;;;;;;;1.00;1.00;;;;;16.87;67.33;100687.88;4860250;29;45425;-89
2022/09/09 01:10:38;;;;;;;;;0.75;0.75;;;;;16.83;67.46;100697.72;4845323;29;45419;-85
2022/09/09 01:13:12;;;;;;;;;3.75;1.00;;;;;16.82;67.38;100687.25;4860588;29;45272;-85
2022/09/09 01:15:39;;;;;;;;;0.00;0.00;;;;;16.83;67.96;100687.19;4844530;29;45447;-85
2022/09/09 01:18:06;;;;;;;;;1.50;1.00;;;;;16.86;67.88;100688.78;4828883;29;64908;-84
2022/09/09 01:20:44;;;;;;;;;1.50;0.50;;;;;16.90;67.50;100684.22;4857102;29;45500;-85
2022/09/09 01:23:19;;;;;;;;;1.25;1.00;;;;;16.90;67.34;100681.59;4860534;29;45592;-84
2022/09/09 01:26:02;;;;;;;;;2.75;1.00;;;;;16.90;67.67;100687.72;4860107;29;47671;-85
2022/09/09 01:28:28;;;;;;;;;3.00;1.00;;;;;16.93;67.53;100681.44;4860172;29;45422;-84
2022/09/09 01:30:55;;;;;;;;;3.00;1.00;;;;;16.94;67.60;100685.75;4870150;29;47135;-85
2022/09/09 01:33:20;;;;;;;;;1.00;0.75;;;;;16.94;67.73;100681.34;4885662;29;45373;-84
2022/09/09 01:36:00;;;;;;;;;1.00;1.00;;;;;16.96;67.36;100687.34;4971404;28;72575;-84
2022/09/09 01:38:26;;;;;;;;;2.00;2.00;;;;;17.00;67.52;100691.50;4974764;28;45609;-85
2022/09/09 01:40:52;;;;;;;;;2.00;1.00;;;;;17.01;67.10;100690.59;4974119;28;66989;-85
2022/09/09 01:43:19;;;;;;;;;1.00;1.00;;;;;17.01;67.37;100690.59;4974837;28;45432;-85
2022/09/09 01:45:47;;;;;;;;;3.75;1.00;;;;;17.04;67.11;100692.19;5012634;28;48560;-85
2022/09/09 01:48:12;;;;;;;;;3.25;0.75;;;;;17.09;67.02;100684.88;5001446;28;57795;-85
2022/09/09 01:50:37;;;;;;;;;1.00;1.00;;;;;17.11;67.14;100682.19;5036370;28;45313;-84
2022/09/09 01:53:03;;;;;;;;;1.75;1.25;;;;;17.10;66.88;100680.47;5017628;28;68678;-85
2022/09/09 01:56:05;;;;;;;;;0.50;0.50;;;;;17.12;67.40;100695.22;5018201;28;46421;-85
2022/09/09 01:59:03;;;;;;;;;2.50;2.00;;;;;17.14;66.99;100690.75;5018417;28;45836;-85
2022/09/09 02:01:35;;;;;;;;;1.25;1.00;;;;;17.13;66.68;100680.31;5018402;28;45429;-84
2022/09/09 02:04:04;;;;;;;;;2.50;1.00;;;;;17.10;66.73;100678.66;5036175;28;45368;-84
2022/09/09 02:06:40;;;;;;;;;1.00;1.00;;;;;17.13;67.50;100672.41;5017866;28;45361;-85
2022/09/09 02:09:07;;;;;;;;;1.00;1.00;;;;;17.12;67.13;100675.97;5035898;28;45333;-84
2022/09/09 02:11:33;;;;;;;;;1.50;1.00;;;;;17.07;67.26;100663.09;5018381;28;45390;-85
2022/09/09 02:14:06;;;;;;;;;2.50;0.00;;;;;17.02;67.08;100665.97;5017966;28;45541;-82
2022/09/09 02:16:47;;;;;;;;;1.00;1.00;;;;;16.99;67.18;100660.91;5001282;28;47427;-82
2022/09/09 02:19:25;;;;;;;;;2.25;1.00;;;;;16.97;66.79;100664.53;5035682;28;45342;-82
2022/09/09 02:21:53;;;;;;;;;3.75;1.25;;;;;16.93;67.63;100670.91;5017549;28;45578;-82
2022/09/09 02:24:18;;;;;;;;;2.50;1.00;;;;;16.88;67.49;100671.16;5018182;28;45500;-82
2022/09/09 02:26:46;;;;;;;;;0.50;0.50;;;;;16.86;67.32;100661.66;5017542;28;54858;-82
2022/09/09 02:29:15;;;;;;;;;1.50;1.00;;;;;16.83;68.40;100662.69;5017555;28;45621;-82
2022/09/09 02:31:42;;;;;;;;;0.50;0.00;;;;;16.81;67.86;100667.16;5017976;28;45425;-85
2022/09/09 02:34:10;;;;;;;;;3.00;1.00;;;;;16.79;67.87;100658.50;5017627;28;45550;-85
2022/09/09 02:36:37;;;;;;;;;2.00;1.00;;;;;16.81;67.88;100656.66;5017892;28;47232;-84
2022/09/09 02:39:05;;;;;;;;;4.50;1.75;;;;;16.83;68.04;100652.19;5017866;28;45478;-85
2022/09/09 02:41:34;;;;;;;;;4.00;0.00;;;;;16.85;67.75;100665.25;5017934;28;45435;-85
2022/09/09 02:44:00;;;;;;;;;2.00;2.00;;;;;16.88;68.17;100652.75;5017384;28;45416;-84
2022/09/09 02:46:50;;;;;;;;;1.50;1.00;;;;;16.91;67.91;100651.75;5017623;28;46647;-84
2022/09/09 02:49:20;;;;;;;;;1.25;0.75;;;;;16.96;67.84;100642.66;5035514;28;45322;-85
2022/09/09 02:52:06;;;;;;;;;2.75;2.00;;;;;16.97;67.62;100646.97;5017799;28;45422;-85
2022/09/09 02:54:33;;;;;;;;;1.00;1.00;;;;;16.97;67.49;100643.50;5017751;28;45386;-84
2022/09/09 02:57:10;;;;;;;;;1.75;1.50;;;;;16.99;67.37;100650.38;5017111;28;47153;-84
2022/09/09 02:59:36;;;;;;;;;1.00;0.75;;;;;17.01;67.14;100648.50;5017561;28;45447;-84
2022/09/09 03:02:02;;;;;;;;;2.25;1.00;;;;;17.03;67.09;100649.28;5017754;28;45383;-83
2022/09/09 03:04:27;;;;;;;;;4.25;2.00;;;;;17.04;67.35;100644.84;5035454;28;45505;-83
2022/09/09 03:06:53;;;;;;;;;2.00;1.25;;;;;17.05;66.85;100643.94;5017304;28;46479;-82
2022/09/09 03:09:19;;;;;;;;;2.75;2.00;;;;;17.06;67.53;100648.22;5016217;28;73268;-82
2022/09/09 03:11:44;;;;;;;;;1.00;1.00;;;;;17.04;67.21;100644.84;5017314;28;45407;-82
2022/09/09 03:14:11;;;;;;;;;4.50;2.00;;;;;17.01;67.35;100652.91;5017370;28;45478;-82
2022/09/09 03:16:36;;;;;;;;;2.00;1.00;;;;;16.98;67.55;100655.72;5034980;28;46336;-82
2022/09/09 03:19:02;;;;;;;;;1.75;1.25;;;;;16.93;67.74;100650.72;5033849;28;45543;-82
2022/09/09 03:21:27;;;;;;;;;5.75;3.00;;;;;16.92;67.97;100642.91;5016752;28;53076;-82
2022/09/09 03:23:52;;;;;;;;;2.25;1.00;;;;;16.91;67.49;100649.97;5034001;28;70743;-83
2022/09/09 03:26:18;;;;;;;;;1.00;1.00;;;;;16.93;67.25;100660.41;5016761;28;46088;-84
2022/09/09 03:28:44;;;;;;;;;1.75;1.00;;;;;16.94;67.83;100656.84;5017483;28;45938;-84
2022/09/09 03:31:10;;;;;;;;;5.00;1.50;;;;;16.94;67.42;100641.06;5035151;28;45330;-85
2022/09/09 03:33:39;;;;;;;;;2.75;1.00;;;;;16.90;67.32;100637.75;5038422;28;45469;-84
2022/09/09 03:36:05;;;;;;;;;5.00;1.00;;;;;16.89;67.42;100638.69;5036899;28;47997;-83
2022/09/09 03:38:31;;;;;;;;;1.50;1.50;;;;;16.86;67.27;100628.34;5038343;28;45348;-82
2022/09/09 03:40:57;;;;;;;;;2.00;1.00;;;;;16.84;67.34;100632.84;5038045;28;45317;-82
2022/09/09 03:43:23;;;;;;;;;2.75;1.00;;;;;16.83;67.35;100628.53;5020577;28;45369;-83
2022/09/09 03:45:49;;;;;;;;;2.50;1.00;;;;;16.82;67.58;100635.53;5020268;28;46537;-83
2022/09/09 03:48:18;;;;;;;;;0.00;0.00;;;;;16.80;67.43;100629.50;5038223;28;45527;-83
2022/09/09 03:50:54;;;;;;;;;3.50;1.00;;;;;16.77;67.82;100641.97;5020478;28;45584;-83
2022/09/09 03:53:22;;;;;;;;;2.50;1.75;;;;;16.77;67.71;100650.72;5020206;28;45606;-82
2022/09/09 03:55:54;;;;;;;;;2.75;2.00;;;;;16.74;67.95;100642.16;5037635;28;46554;-83
2022/09/09 03:58:20;;;;;;;;;1.00;1.00;;;;;16.71;67.94;100640.53;5037950;28;45447;-82
2022/09/09 04:00:58;;;;;;;;;3.50;2.00;;;;;16.69;68.73;100645.03;5038128;28;45466;-83
2022/09/09 04:03:24;;;;;;;;;2.00;2.00;;;;;16.68;68.29;100634.59;5020062;28;45661;-82
2022/09/09 04:05:51;;;;;;;;;3.00;1.25;;;;;16.65;68.05;100638.25;5037749;28;46633;-82
2022/09/09 04:08:16;;;;;;;;;3.00;1.00;;;;;16.62;68.29;100641.91;5020097;28;45764;-83
2022/09/09 04:10:42;;;;;;;;;3.00;1.75;;;;;16.63;68.38;100640.13;5019825;28;45263;-83
2022/09/09 04:13:07;;;;;;;;;2.75;1.50;;;;;16.62;68.31;100641.03;5020149;28;45490;-82
2022/09/09 04:15:33;;;;;;;;;4.50;2.00;;;;;16.61;68.08;100628.84;5019522;28;51308;-83
2022/09/09 04:17:58;;;;;;;;;4.00;2.25;;;;;16.61;68.04;100628.84;5019845;28;45331;-85
2022/09/09 04:20:24;;;;;;;;;1.75;0.25;;;;;16.61;68.22;100620.97;5036696;28;65862;-86
2022/09/09 04:22:49;;;;;;;;;3.75;2.00;;;;;16.66;68.16;100634.72;5019863;28;45515;-84
2022/09/09 04:25:14;;;;;;;;;3.00;2.00;;;;;16.63;68.27;100635.72;5018281;28;75077;-83
2022/09/09 04:27:40;;;;;;;;;3.75;2.00;;;;;16.64;68.27;100628.66;5037504;28;46154;-83
2022/09/09 04:30:07;;;;;;;;;2.00;1.75;;;;;16.63;68.11;100632.25;5019779;28;45421;-82
2022/09/09 04:32:33;;;;;;;;;2.00;2.00;;;;;16.62;68.45;100627.91;5037424;28;45607;-83
2022/09/09 04:34:58;;;;;;;;;2.25;1.25;;;;;16.61;68.23;100634.13;5019282;28;47457;-83
2022/09/09 04:37:24;;;;;;;;;5.00;1.50;;;;;16.61;68.30;100640.19;5019003;28;59982;-83
2022/09/09 04:39:50;;;;;;;;;3.50;1.50;;;;;16.59;68.19;100636.81;5019439;28;45410;-83
2022/09/09 04:42:16;;;;;;;;;3.00;1.00;;;;;16.59;68.52;100646.50;5037424;28;45373;-83
2022/09/09 04:44:41;;;;;;;;;2.00;1.25;;;;;16.57;68.12;100641.31;5018613;28;45364;-84
2022/09/09 04:47:07;;;;;;;;;2.00;1.00;;;;;16.56;68.28;100647.50;5037352;28;45279;-89
2022/09/09 04:49:32;;;;;;;;;1.00;1.00;;;;;16.56;68.64;100633.50;5019522;28;45409;-83
2022/09/09 04:51:57;;;;;;;;;1.75;0.00;;;;;16.54;68.37;100633.59;5019428;28;45466;-83
2022/09/09 04:54:23;;;;;;;;;2.50;1.00;;;;;16.54;68.82;100636.22;5018867;28;46988;-82
2022/09/09 04:56:50;;;;;;;;;2.00;2.00;;;;;16.53;68.22;100638.94;5002254;28;53741;-83
2022/09/09 04:59:16;;;;;;;;;2.00;2.00;;;;;16.53;68.58;100636.28;5019481;28;45353;-82
2022/09/09 05:01:42;;;;;;;;;3.50;2.00;;;;;16.53;68.32;100646.81;5019291;28;45249;-84
2022/09/09 05:04:08;;;;;;;;;3.00;1.75;;;;;16.53;68.87;100649.44;5036943;28;45346;-83
2022/09/09 05:06:33;;;;;;;;;1.75;1.00;;;;;16.50;68.73;100655.72;5036655;28;45548;-83
2022/09/09 05:09:00;;;;;;;;;3.00;2.00;;;;;16.52;68.69;100650.38;5036611;28;45485;-83
2022/09/09 05:11:27;;;;;;;;;2.00;1.00;;;;;16.53;68.61;100659.94;5019317;28;45271;-83
2022/09/09 05:13:53;;;;;;;;;4.75;1.00;;;;;16.54;69.07;100675.63;5036764;28;45392;-82
2022/09/09 05:16:20;;;;;;;;;4.50;1.75;;;;;16.53;68.75;100671.31;5035292;28;45465;-83
2022/09/09 05:18:51;;;;;;;;;3.25;1.00;;;;;16.53;68.89;100673.97;5036769;28;45349;-84
2022/09/09 05:21:18;;;;;;;;;2.00;1.25;;;;;16.54;69.10;100665.13;5036672;28;45401;-83
2022/09/09 05:23:45;;;;;;;;;3.50;2.00;;;;;16.54;69.05;100667.75;5018451;28;47223;-83
2022/09/09 05:26:18;;;;;;;;;5.00;2.00;;;;;16.56;68.96;100667.66;5018656;28;45699;-84
2022/09/09 05:28:44;;;;;;;;;3.75;2.00;;;;;16.56;69.31;100660.63;5018940;28;45545;-84
2022/09/09 05:31:13;;;;;;;;;1.00;1.00;;;;;16.59;68.16;100654.38;5036727;28;45409;-83
2022/09/09 05:33:45;;;;;;;;;3.00;2.00;;;;;16.60;68.81;100658.69;5036313;28;46122;-83
2022/09/09 05:36:16;;;;;;;;;3.00;1.75;;;;;16.62;68.36;100664.69;5036317;28;45404;-85
2022/09/09 05:38:42;;;;;;;;;1.25;1.00;;;;;16.61;68.23;100665.66;5018443;28;45322;-85
2022/09/09 05:41:10;;;;;;;;;3.00;2.00;;;;;16.60;68.59;100653.44;5036607;28;45484;-86
2022/09/09 05:43:35;;;;;;;;;2.00;2.00;;;;;16.64;68.63;100654.94;5018592;28;45543;-85
2022/09/09 05:46:07;;;;;;;;;1.00;1.00;;;;;16.67;68.59;100657.41;5036271;28;45546;-85
2022/09/09 05:48:38;;;;;;;;;4.00;2.75;;;;;16.71;68.48;100666.81;5036357;28;45437;-85
2022/09/09 05:51:06;;;;;;;;;4.00;2.00;;;;;16.72;68.61;100663.25;5036125;28;45283;-85
2022/09/09 05:53:33;;;;;;;;;4.00;1.25;;;;;16.77;68.66;100669.13;5018482;28;47452;-85
2022/09/09 05:56:07;;;;;;;;;4.75;2.00;;;;;16.81;68.24;100659.28;5035891;28;45723;-85
2022/09/09 05:58:33;;;;;;;;;6.50;3.00;;;;;16.86;68.20;100661.66;5018538;28;45260;-85
2022/09/09 06:01:03;;;;;;;;;4.75;2.00;;;;;16.87;68.42;100666.84;5036273;28;45479;-85
2022/09/09 06:03:29;;;;;;;;;1.00;1.00;;;;;16.91;68.25;100664.91;5036094;28;45361;-85
2022/09/09 06:06:02;;;;;;;;;3.50;1.00;;;;;16.92;67.98;100663.94;5016620;28;70074;-85
2022/09/09 06:08:27;;;;;;;;;2.00;2.00;;;;;16.98;68.14;100668.88;5037276;28;45380;-85
2022/09/09 06:10:53;;;;;;;;;4.25;2.00;;;;;17.03;68.04;100662.41;5018213;28;45398;-85
2022/09/09 06:13:18;;;;;;;;;2.25;1.00;;;;;17.06;68.21;100665.81;5000703;28;62213;-85
2022/09/09 06:15:51;;;;;;;;;3.25;2.00;;;;;17.07;67.65;100664.84;5035109;28;60160;-84
2022/09/09 06:18:18;;;;;;;;;1.00;1.00;;;;;17.07;67.64;100663.09;5035906;28;45420;-86
2022/09/09 06:21:00;;;;;;;;;1.00;0.00;;;;;17.10;67.86;100665.53;5017789;28;45413;-85
2022/09/09 06:23:26;;;;;;;;;3.50;2.00;;;;;17.14;68.11;100677.59;5035585;28;47253;-85
2022/09/09 06:26:02;;;;;;;;;2.00;2.00;;;;;17.15;67.79;100668.75;5034396;28;45308;-85
2022/09/09 06:28:27;;;;;;;;;3.50;2.00;;;;;17.16;67.68;100677.47;5035766;28;45421;-85
2022/09/09 06:31:23;;;;;;;;;2.00;2.00;;;;;17.14;67.80;100680.22;5035271;28;57135;-85
2022/09/09 06:33:49;;;;;;;;;2.00;2.00;;;;;17.18;67.70;100673.00;4984474;28;46368;-82
2022/09/09 06:36:18;;;;;;;;;1.75;1.50;;;;;17.27;67.07;100679.50;5035155;28;45663;-83
2022/09/09 06:38:45;;;;;;;;;4.25;1.00;;;;;17.29;67.27;100677.63;5035674;28;45861;-82
2022/09/09 06:41:12;;;;;;;;;5.00;2.50;;;;;17.31;66.70;100663.47;5035576;28;45438;-83
2022/09/09 06:43:37;;;;;;;;;3.00;2.00;;;;;17.34;66.84;100672.94;5017709;28;45641;-83
2022/09/09 06:46:14;;;;;;;;;1.00;1.00;;;;;17.41;66.54;100676.91;5035343;28;45487;-83
2022/09/09 06:48:41;;;;;;;;;5.50;2.75;;;;;17.49;66.40;100676.47;5035570;28;45358;-83
2022/09/09 06:51:06;;;;;;;;;3.00;2.75;;;;;17.58;66.11;100671.50;5035406;28;45310;-84
2022/09/09 06:53:35;;;;;;;;;2.50;2.00;;;;;17.65;66.24;100684.31;5035349;28;46123;-84
2022/09/09 06:56:11;;;;;;;;;3.00;1.00;;;;;17.70;66.11;100684.84;5017915;28;45499;-83
2022/09/09 06:58:42;;;;;;;;;2.00;2.00;;;;;17.75;65.61;100685.44;5035539;28;45328;-84
2022/09/09 07:01:09;;;;;;;;;4.00;1.50;;;;;17.78;65.58;100675.56;5035351;28;45454;-85
2022/09/09 07:03:35;;;;;;;;;5.50;1.75;;;;;17.78;65.31;100686.09;5035013;28;46089;-85
2022/09/09 07:06:00;;;;;;;;;4.00;2.00;;;;;17.78;65.04;100683.47;5017286;28;45452;-85
2022/09/09 07:08:26;;;;;;;;;4.00;2.00;;;;;17.83;65.20;100677.06;5038622;28;45518;-85
2022/09/09 07:10:55;;;;;;;;;6.75;3.00;;;;;17.87;65.07;100681.28;5020968;28;45600;-85
2022/09/09 07:13:25;;;;;;;;;3.00;1.00;;;;;17.87;64.64;100681.28;5037410;28;46513;-87
2022/09/09 07:15:53;;;;;;;;;3.00;1.50;;;;;17.87;64.74;100687.38;5020687;28;45321;-85
2022/09/09 07:18:19;;;;;;;;;4.00;3.00;;;;;17.93;64.24;100684.38;5038419;28;45346;-83
2022/09/09 07:20:57;;;;;;;;;2.00;1.00;;;;;17.98;63.84;100682.31;5038532;28;45303;-84
2022/09/09 07:23:23;;;;;;;;;2.25;1.75;;;;;17.97;63.86;100693.75;5021015;28;46531;-85
2022/09/09 07:25:48;;;;;;;;;3.75;1.75;;;;;17.98;64.12;100682.31;5019948;28;45506;-82
2022/09/09 07:28:14;;;;;;;;;3.00;1.50;;;;;18.05;64.13;100698.56;5030766;28;65042;-83
2022/09/09 07:30:40;;;;;;;;;4.75;1.00;;;;;18.16;63.86;100701.41;5025096;28;64354;-83
2022/09/09 07:33:06;;;;;;;;;6.00;2.00;;;;;18.24;63.68;100692.16;5026001;28;46460;-82
2022/09/09 07:35:31;;;;;;;;;3.00;1.00;;;;;18.28;63.94;100705.06;5002391;28;45410;-84
2022/09/09 07:37:57;;;;;;;;;4.50;2.50;;;;;18.26;63.79;100704.31;5000062;28;45536;-85
2022/09/09 07:40:23;;;;;;;;;1.50;1.00;;;;;18.28;63.33;100706.88;5037695;28;45291;-84
2022/09/09 07:42:48;;;;;;;;;8.00;2.75;;;;;18.33;63.08;100715.31;5019678;28;46235;-87
2022/09/09 07:45:14;;;;;;;;;1.00;1.00;;;;;18.41;63.18;100715.72;5010166;28;45361;-85
2022/09/09 07:47:41;;;;;;;;;4.25;2.75;;;;;18.49;62.72;100717.84;5003089;28;45443;-86
2022/09/09 07:50:06;;;;;;;;;9.25;2.00;;;;;18.52;62.75;100720.31;5045283;28;45466;-87
2022/09/09 07:52:33;;;;;;;;;1.50;1.50;;;;;18.50;62.55;100724.84;5036686;28;46146;-86
2022/09/09 07:54:59;;;;;;;;;2.75;2.00;;;;;18.49;62.78;100728.41;5037065;28;46864;-88
2022/09/09 07:57:25;;;;;;;;;4.75;2.00;;;;;18.42;62.64;100714.75;5037667;28;45428;-86
2022/09/09 07:59:52;;;;;;;;;4.00;1.75;;;;;18.35;62.90;100727.47;5037271;28;45341;-87
2022/09/09 08:02:18;;;;;;;;;3.25;2.00;;;;;18.34;62.97;100727.56;5037453;28;47470;-86
2022/09/09 08:04:43;;;;;;;;;5.50;1.50;;;;;18.35;62.79;100716.94;5036528;28;73104;-87
2022/09/09 08:07:08;;;;;;;;;1.75;1.00;;;;;18.42;62.45;100721.81;5018891;28;69345;-87
2022/09/09 08:09:34;;;;;;;;;5.75;2.00;;;;;18.43;62.49;100723.53;5037563;28;45433;-86
2022/09/09 08:12:00;;;;;;;;;4.00;2.00;;;;;18.52;62.98;100731.69;5036458;28;64596;-89
2022/09/09 08:14:26;;;;;;;;;3.75;1.00;;;;;18.58;61.68;100731.31;5018959;28;45642;-86
2022/09/09 08:16:53;;;;;;;;;2.00;1.00;;;;;18.65;62.25;100729.13;5036934;28;45275;-87
2022/09/09 08:19:18;;;;;;;;;5.25;1.75;;;;;18.77;61.78;100723.06;5035592;28;45227;-87
2022/09/09 08:21:45;;;;;;;;;1.00;1.00;;;;;18.88;61.51;100737.41;5035620;28;46238;-86
2022/09/09 08:24:11;;;;;;;;;2.25;1.00;;;;;18.95;60.40;100736.06;5044604;28;52552;-87
2022/09/09 08:26:38;;;;;;;;;2.00;2.00;;;;;19.05;60.56;100734.53;5055693;28;45359;-86
2022/09/09 08:29:06;;;;;;;;;0.25;0.25;;;;;19.15;60.40;100740.06;5036915;28;45390;-88
2022/09/09 08:31:34;;;;;;;;;3.75;1.00;;;;;19.22;60.40;100729.94;5034787;28;46367;-86
2022/09/09 08:34:01;;;;;;;;;0.75;0.75;;;;;19.25;59.52;100735.88;5036847;28;45840;-87
2022/09/09 08:36:29;;;;;;;;;2.50;1.00;;;;;19.31;60.04;100742.53;5019841;28;45432;-87
2022/09/09 08:38:55;;;;;;;;;4.25;1.50;;;;;19.38;59.47;100748.28;5037084;28;45393;-87
2022/09/09 08:41:30;;;;;;;;;2.50;1.00;;;;;19.46;59.40;100741.53;5036815;28;46319;-87
2022/09/09 08:44:05;;;;;;;;;6.00;2.00;;;;;19.57;59.05;100745.25;5036517;28;45662;-87
2022/09/09 08:46:57;;;;;;;;;1.50;1.00;;;;;19.72;59.24;100745.13;5035066;28;45355;-87
2022/09/09 08:50:07;;;;;;;;;1.00;0.50;;;;;19.76;58.53;100750.19;5035856;28;45754;-85
2022/09/09 08:52:38;;;;;;;;;3.00;1.50;;;;;19.68;57.90;100748.03;4951558;28;46769;-87
2022/09/09 08:55:22;;;;;;;;;1.00;1.00;;;;;19.76;57.98;100755.47;4954857;28;45726;-86
2022/09/09 08:57:51;;;;;;;;;0.50;0.00;;;;;19.81;57.82;100753.38;4936317;28;45539;-86
2022/09/09 09:00:16;;;;;;;;;1.25;1.25;;;;;19.88;58.30;100762.56;4931313;28;45505;-86
2022/09/09 09:02:49;;;;;;;;;2.25;1.00;;;;;19.91;57.77;100759.72;4938525;28;67468;-86
2022/09/09 09:05:21;;;;;;;;;2.25;1.75;;;;;19.96;57.44;100769.97;4925988;28;45690;-87
2022/09/09 09:08:17;;;;;;;;;3.50;2.00;;;;;20.14;58.00;100768.72;4919979;28;45548;-86
2022/09/09 09:10:47;;;;;;;;;1.00;1.00;;;;;20.38;57.21;100767.97;4897655;29;45476;-87
2022/09/09 09:13:21;;;;;;;;;5.50;1.00;;;;;20.62;56.83;100762.81;4913313;28;47119;-87
2022/09/09 09:15:50;;;;;;;;;1.00;1.00;;;;;20.84;56.30;100770.91;4918413;28;45436;-87
2022/09/09 09:18:17;;;;;;;;;1.50;0.75;;;;;20.94;55.77;100778.16;4919576;28;45440;-87
2022/09/09 09:20:51;;;;;;;;;2.00;1.50;;;;;20.89;55.48;100775.84;4919275;28;56634;-86
2022/09/09 09:23:24;;;;;;;;;4.00;1.00;;;;;20.91;55.26;100781.88;4908162;28;46430;-86
2022/09/09 09:25:54;;;;;;;;;2.00;1.00;;;;;20.94;55.06;100783.47;4927548;28;45654;-85
2022/09/09 09:28:25;;;;;;;;;1.25;1.00;;;;;20.93;55.29;100782.63;4950666;28;45368;-86
2022/09/09 09:30:57;;;;;;;;;2.00;1.00;;;;;20.95;54.45;100783.34;4980461;28;45645;-87
2022/09/09 09:33:27;;;;;;;;;0.75;0.75;;;;;21.03;54.99;100802.16;4998183;28;46530;-86
2022/09/09 09:35:53;;;;;;;;;2.25;1.25;;;;;21.00;54.24;100796.25;4985301;28;45888;-85
2022/09/09 09:38:23;;;;;;;;;1.50;1.50;;;;;20.97;54.00;100802.63;4994585;28;45542;-85
2022/09/09 09:41:00;;;;;;;;;1.00;1.00;;;;;20.90;54.58;100819.03;5010041;28;45517;-85
2022/09/09 09:43:30;;;;;;;;;0.50;0.50;;;;;20.81;54.80;100802.00;4993220;28;47959;-86
2022/09/09 09:45:57;;;;;;;;;3.00;1.25;;;;;20.88;54.88;100797.97;5001375;28;45473;-85
2022/09/09 09:48:23;;;;;;;;;3.00;2.00;;;;;20.96;54.37;100814.13;5031928;28;45476;-85
2022/09/09 09:50:52;;;;;;;;;2.25;1.00;;;;;20.97;54.57;100801.75;5036457;28;45513;-89
2022/09/09 09:53:24;;;;;;;;;2.25;1.25;;;;;20.98;54.44;100814.03;5034370;28;46058;-87
2022/09/09 09:55:58;;;;;;;;;2.00;0.75;;;;;20.98;54.61;100809.56;5033843;28;45423;-88
2022/09/09 09:58:25;;;;;;;;;5.00;1.00;;;;;20.97;54.17;100812.34;5039611;28;45534;-90
2022/09/09 10:00:53;;;;;;;;;2.50;2.00;;;;;20.80;54.23;100801.19;5021236;28;45417;-84
2022/09/09 10:03:22;;;;;;;;;1.00;1.00;;;;;20.68;54.85;100812.59;5017545;28;48098;-89
2022/09/09 10:05:47;;;;;;;;;4.50;0.50;;;;;20.65;55.08;100820.75;5035624;28;45634;-88
2022/09/09 10:08:16;;;;;;;;;2.00;2.00;;;;;20.64;54.95;100833.13;5034871;28;60265;-85
2022/09/09 10:11:06;;;;;;;;;1.00;1.00;;;;;20.63;54.85;100826.13;5017973;28;45332;-89
2022/09/09 10:13:41;;;;;;;;;0.00;0.00;;;;;20.60;55.34;100823.72;5035234;28;47045;-88
2022/09/09 10:16:14;;;;;;;;;3.00;1.25;;;;;20.72;55.37;100824.66;5034897;28;45749;-88
2022/09/09 10:18:47;;;;;;;;;2.25;1.75;;;;;20.93;55.29;100817.03;5035626;28;45349;-86
2022/09/09 10:21:48;;;;;;;;;2.25;2.00;;;;;21.30;53.90;100822.28;5017205;28;45536;-87
2022/09/09 10:24:22;;;;;;;;;2.00;2.00;;;;;21.67;52.64;100814.31;5015115;28;51249;-88
2022/09/09 10:27:06;;;;;;;;;3.25;3.00;;;;;21.95;52.37;100812.25;5016827;28;45951;-88
2022/09/09 10:29:44;;;;;;;;;3.00;1.00;;;;;21.99;51.72;100819.88;5020470;28;45531;-87
2022/09/09 10:32:35;;;;;;;;;1.00;1.00;;;;;21.97;50.92;100835.03;5035127;28;45509;-87
2022/09/09 10:35:12;;;;;;;;;2.00;2.00;;;;;21.82;51.44;100831.75;4972824;28;48262;-88
2022/09/09 10:37:37;;;;;;;;;2.00;2.00;;;;;21.87;51.67;100826.06;4973429;28;45487;-87
2022/09/09 10:40:29;;;;;;;;;2.00;1.00;;;;;21.87;51.83;100823.44;4973717;28;45378;-86
2022/09/09 10:42:59;;;;;;;;;4.00;1.75;;;;;21.71;51.67;100820.22;4971108;28;45490;-87
2022/09/09 10:45:46;;;;;;;;;3.75;1.75;;;;;21.59;52.41;100829.94;4977045;28;45401;-85
2022/09/09 10:48:45;;;;;;;;;3.00;1.00;;;;;21.65;52.17;100825.03;4976896;28;45827;-87
2022/09/09 10:51:22;;;;;;;;;1.00;1.00;;;;;21.70;51.86;100816.75;4957639;28;45396;-86
2022/09/09 10:54:06;;;;;;;;;1.00;1.00;;;;;21.80;51.37;100827.50;4957477;28;45425;-87
2022/09/09 10:56:31;;;;;;;;;1.25;1.00;;;;;21.75;51.29;100825.19;4956306;28;45461;-86
2022/09/09 10:59:05;;;;;;;;;2.00;1.00;;;;;21.66;51.31;100825.88;4955379;28;45359;-86
2022/09/09 11:01:45;;;;;;;;;3.25;1.00;;;;;21.61;51.67;100828.03;4938046;28;45486;-87
2022/09/09 11:04:24;;;;;;;;;2.25;1.75;;;;;21.54;52.87;100826.78;4938030;28;45444;-87
2022/09/09 11:06:55;;;;;;;;;1.00;1.00;;;;;21.57;52.86;100813.31;4937736;28;46195;-87
2022/09/09 11:09:24;;;;;;;;;1.00;1.00;;;;;21.76;52.48;100818.09;4921954;28;45766;-87
2022/09/09 11:11:53;;;;;;;;;2.25;1.00;;;;;22.02;51.70;100824.06;4956954;28;45405;-87
2022/09/09 11:14:45;;;;;;;;;2.25;2.00;;;;;22.16;51.24;100823.88;4976485;28;45538;-86
2022/09/09 11:17:16;;;;;;;;;2.75;1.00;;;;;22.09;50.99;100825.31;4960256;28;45391;-87
2022/09/09 11:19:43;;;;;;;;;2.50;1.00;;;;;21.94;50.45;100815.88;4976721;28;45761;-88
2022/09/09 11:22:31;;;;;;;;;2.00;0.00;;;;;21.74;51.13;100826.16;4976752;28;45603;-87
2022/09/09 11:25:00;;;;;;;;;2.00;1.25;;;;;21.70;51.81;100826.50;4978450;28;45481;-87
2022/09/09 11:27:47;;;;;;;;;2.00;1.00;;;;;21.97;51.19;100823.56;4985304;28;46782;-87
2022/09/09 11:30:17;;;;;;;;;1.50;1.00;;;;;22.22;50.65;100815.44;5037923;28;45354;-87
2022/09/09 11:33:10;;;;;;;;;6.25;2.00;;;;;22.21;50.22;100815.56;5020205;28;45543;-86
2022/09/09 11:35:42;;;;;;;;;0.50;0.50;;;;;22.09;49.84;100829.75;5020184;28;45590;-87
2022/09/09 11:38:25;;;;;;;;;0.50;0.50;;;;;21.92;50.42;100837.19;5037561;28;47170;-85
2022/09/09 11:40:58;;;;;;;;;2.25;1.00;;;;;21.78;51.44;100835.56;5037423;28;45344;-87
2022/09/09 11:43:27;;;;;;;;;2.50;1.00;;;;;21.82;51.36;100834.38;5020397;28;45380;-87
2022/09/09 11:45:57;;;;;;;;;2.75;1.75;;;;;21.83;50.95;100833.41;5020284;28;45612;-87
2022/09/09 11:48:33;;;;;;;;;1.00;1.00;;;;;21.74;51.18;100835.91;5020224;28;47282;-87
2022/09/09 11:51:07;;;;;;;;;2.00;2.00;;;;;21.73;51.23;100844.81;5036792;28;45279;-87
2022/09/09 11:53:33;;;;;;;;;3.00;1.00;;;;;21.73;51.63;100850.09;5037279;28;45392;-89